Time;durP1;ratioP1;P1;durP2;ratioP2;P2;SDS_P1;SDS_P2;PMS_P1;PMS_P2;Temp;Humidity;BMP_temperature;BMP_pressure;BME280_temperature;BME280_humidity;BME280_pressure;Samples;Min_cycle;Max_cycle;Signal;HPM_P1;HPM_P2
2023/03/16 00:00:44;;;;;;;6.83;4.80;;;6.50;99.90;;;;;;4947595;28;38464;-79
2023/03/16 00:03:10;;;;;;;9.77;5.33;;;6.50;99.90;;;;;;4963645;28;35702;-77
2023/03/16 00:05:37;;;;;;;6.87;4.77;;;6.50;99.90;;;;;;4950396;28;37689;-78
2023/03/16 00:08:03;;;;;;;7.33;4.90;;;6.50;99.90;;;;;;4950125;28;37074;-79
2023/03/16 00:10:29;;;;;;;9.63;5.00;;;6.50;99.90;;;;;;4973482;28;37958;-79
2023/03/16 00:12:56;;;;;;;7.80;5.00;;;6.50;99.90;;;;;;4952670;28;37716;-78
2023/03/16 00:15:22;;;;;;;6.43;4.90;;;6.50;99.90;;;;;;4948909;28;37986;-78
2023/03/16 00:17:48;;;;;;;8.43;5.23;;;6.50;99.90;;;;;;4972403;28;38230;-78
2023/03/16 00:20:16;;;;;;;8.73;5.20;;;6.60;99.90;;;;;;4943301;28;36917;-78
2023/03/16 00:22:43;;;;;;;11.73;5.47;;;6.50;99.90;;;;;;4968807;28;38845;-78
2023/03/16 00:25:11;;;;;;;8.90;4.70;;;6.50;99.90;;;;;;4952009;28;37665;-78
2023/03/16 00:27:38;;;;;;;8.30;4.90;;;6.50;99.90;;;;;;4954959;28;37692;-78
2023/03/16 00:30:04;;;;;;;6.97;5.20;;;6.50;99.90;;;;;;4950455;28;36821;-78
2023/03/16 00:32:36;;;;;;;9.30;5.30;;;6.50;99.90;;;;;;4951504;28;37364;-79
2023/03/16 00:35:04;;;;;;;6.73;4.63;;;6.60;99.90;;;;;;4953777;28;38010;-78
2023/03/16 00:37:31;;;;;;;6.80;4.63;;;6.50;99.90;;;;;;4954307;28;36967;-78
2023/03/16 00:39:58;;;;;;;7.03;5.07;;;6.50;99.90;;;;;;4950938;28;37152;-78
2023/03/16 00:42:27;;;;;;;8.23;5.37;;;6.50;99.90;;;;;;4951087;28;38568;-78
2023/03/16 00:44:57;;;;;;;7.17;5.23;;;6.50;99.90;;;;;;4955145;28;36696;-78
2023/03/16 00:47:29;;;;;;;8.60;5.40;;;6.50;99.90;;;;;;4950494;28;37306;-77
2023/03/16 00:49:56;;;;;;;7.72;4.90;;;6.50;99.90;;;;;;4971318;28;39696;-78
2023/03/16 00:52:22;;;;;;;9.00;5.53;;;6.50;99.90;;;;;;4961176;28;36593;-77
2023/03/16 00:54:51;;;;;;;9.17;5.67;;;6.50;99.90;;;;;;4955622;28;39672;-78
2023/03/16 00:57:18;;;;;;;8.47;5.37;;;6.50;99.90;;;;;;4952813;28;37730;-77
2023/03/16 00:59:45;;;;;;;8.57;5.40;;;6.50;99.90;;;;;;4971711;28;38066;-78
2023/03/16 01:02:12;;;;;;;8.47;5.87;;;6.50;99.90;;;;;;4954015;28;36084;-78
2023/03/16 01:04:40;;;;;;;10.03;5.50;;;6.50;99.90;;;;;;4941066;28;37646;-76
2023/03/16 01:07:07;;;;;;;10.80;5.60;;;6.50;99.90;;;;;;4946878;28;37187;-77
2023/03/16 01:09:35;;;;;;;9.43;5.30;;;6.50;99.90;;;;;;4968268;28;37645;-77
2023/03/16 01:12:10;;;;;;;9.67;5.77;;;6.50;99.90;;;;;;4948321;28;37926;-78
2023/03/16 01:14:36;;;;;;;7.53;5.73;;;6.50;99.90;;;;;;4953660;28;39090;-77
2023/03/16 01:17:07;;;;;;;12.03;6.27;;;6.50;99.90;;;;;;4946463;28;37866;-78
2023/03/16 01:19:34;;;;;;;10.63;5.67;;;6.50;99.90;;;;;;4953229;28;38535;-78
2023/03/16 01:22:08;;;;;;;7.70;5.33;;;6.50;99.90;;;;;;4952685;28;37268;-78
2023/03/16 01:24:35;;;;;;;10.47;5.80;;;6.50;99.90;;;;;;4950627;28;47138;-78
2023/03/16 01:27:03;;;;;;;10.50;5.90;;;6.50;99.90;;;;;;4963917;28;39600;-77
2023/03/16 01:29:33;;;;;;;10.53;6.37;;;6.50;99.90;;;;;;4967018;28;48497;-78
2023/03/16 01:32:00;;;;;;;13.00;6.13;;;6.50;99.90;;;;;;4955397;28;35972;-79
2023/03/16 01:34:26;;;;;;;12.27;6.00;;;6.60;99.90;;;;;;4963542;28;38813;-77
2023/03/16 01:36:52;;;;;;;11.60;5.60;;;6.60;99.90;;;;;;4964585;28;39217;-78
2023/03/16 01:39:19;;;;;;;8.60;6.20;;;6.60;99.90;;;;;;4969430;28;37664;-77
2023/03/16 01:41:46;;;;;;;9.07;5.43;;;6.60;99.90;;;;;;4947284;28;37437;-77
2023/03/16 01:44:27;;;;;;;8.40;5.80;;;6.60;99.90;;;;;;4964840;28;40069;-78
2023/03/16 01:46:53;;;;;;;13.17;5.50;;;6.70;99.90;;;;;;4964235;28;37231;-77
2023/03/16 01:49:31;;;;;;;10.07;6.50;;;6.70;99.90;;;;;;4954723;28;36950;-80
2023/03/16 01:52:21;;;;;;;8.07;5.87;;;6.70;99.90;;;;;;4949833;28;36308;-77
2023/03/16 01:54:52;;;;;;;14.17;5.87;;;6.60;99.90;;;;;;4947239;28;46977;-77
2023/03/16 01:57:35;;;;;;;9.73;6.27;;;6.60;99.90;;;;;;4964765;28;37426;-77
2023/03/16 02:00:09;;;;;;;9.27;5.90;;;6.60;99.90;;;;;;4948981;28;36771;-77
2023/03/16 02:02:38;;;;;;;6.27;5.60;;;6.50;99.90;;;;;;5319943;23;36017;-80
2023/03/16 02:05:13;;;;;;;9.87;6.50;;;6.50;99.90;;;;;;4932213;28;37546;-79
2023/03/16 02:07:51;;;;;;;9.30;5.73;;;6.50;99.90;;;;;;4931639;28;37295;-78
2023/03/16 02:10:19;;;;;;;6.47;5.47;;;6.50;99.90;;;;;;4934339;28;37811;-79
2023/03/16 02:12:46;;;;;;;11.67;6.13;;;6.50;99.90;;;;;;4944221;28;37214;-80
2023/03/16 02:15:13;;;;;;;10.57;6.37;;;6.50;99.90;;;;;;4933110;28;39839;-80
2023/03/16 02:17:42;;;;;;;12.50;6.23;;;6.50;99.90;;;;;;4933438;28;38447;-80
2023/03/16 02:20:41;;;;;;;12.07;6.50;;;6.50;99.90;;;;;;4936806;28;39267;-79
2023/03/16 02:23:20;;;;;;;10.40;6.47;;;6.40;99.90;;;;;;4941063;28;37512;-80
2023/03/16 02:26:23;;;;;;;15.03;6.93;;;6.40;99.90;;;;;;4936385;28;37782;-80
2023/03/16 02:29:10;;;;;;;13.20;6.47;;;6.40;99.90;;;;;;4952823;28;46991;-80
2023/03/16 02:31:36;;;;;;;8.50;7.17;;;6.40;99.90;;;;;;4928606;28;48195;-79
2023/03/16 02:34:03;;;;;;;11.47;6.50;;;6.40;99.90;;;;;;4932606;28;37870;-79
2023/03/16 02:36:30;;;;;;;11.70;7.40;;;6.40;99.90;;;;;;4930771;28;38659;-79
2023/03/16 02:38:56;;;;;;;11.30;6.47;;;6.40;99.90;;;;;;4941848;28;37527;-81
2023/03/16 02:41:23;;;;;;;11.73;6.77;;;6.30;99.90;;;;;;4928652;28;38402;-79
2023/03/16 02:43:57;;;;;;;11.03;6.90;;;6.30;99.90;;;;;;4934498;28;36415;-80
2023/03/16 02:46:27;;;;;;;12.10;7.33;;;6.30;99.90;;;;;;4932751;28;38840;-79
2023/03/16 02:49:01;;;;;;;14.30;7.33;;;6.30;99.90;;;;;;4943253;28;38511;-79
2023/03/16 02:51:29;;;;;;;9.77;6.90;;;6.20;99.90;;;;;;4948001;28;47250;-79
2023/03/16 02:53:55;;;;;;;11.13;6.73;;;6.20;99.90;;;;;;4943570;28;37602;-80
2023/03/16 02:56:21;;;;;;;9.87;6.43;;;6.20;99.90;;;;;;4934312;28;38316;-79
2023/03/16 02:58:47;;;;;;;10.73;6.57;;;6.20;99.90;;;;;;4925037;28;38316;-79
2023/03/16 03:01:13;;;;;;;11.50;7.13;;;6.20;99.90;;;;;;4931870;28;37965;-79
2023/03/16 03:03:39;;;;;;;11.37;6.73;;;6.20;99.90;;;;;;4949935;28;37188;-79
2023/03/16 03:06:06;;;;;;;13.30;6.70;;;6.20;99.90;;;;;;4950155;28;39814;-79
2023/03/16 03:08:32;;;;;;;9.83;6.77;;;6.20;99.90;;;;;;4952093;28;39175;-78
2023/03/16 03:10:59;;;;;;;12.73;6.73;;;6.20;99.90;;;;;;4945022;28;37292;-79
2023/03/16 03:13:25;;;;;;;9.93;6.50;;;6.20;99.90;;;;;;4946402;28;36096;-79
2023/03/16 03:15:51;;;;;;;9.17;6.80;;;6.20;99.90;;;;;;4924242;28;37890;-79
2023/03/16 03:18:17;;;;;;;11.30;6.40;;;6.20;99.90;;;;;;4948353;28;38406;-79
2023/03/16 03:20:43;;;;;;;14.43;6.73;;;6.20;99.90;;;;;;4960367;28;37987;-80
2023/03/16 03:23:09;;;;;;;10.67;7.03;;;6.20;99.90;;;;;;4950333;28;37130;-78
2023/03/16 03:25:35;;;;;;;15.37;7.30;;;6.20;99.90;;;;;;4940468;28;39829;-79
2023/03/16 03:28:04;;;;;;;12.60;6.97;;;6.20;99.90;;;;;;4931817;28;37119;-77
2023/03/16 03:30:31;;;;;;;10.67;7.00;;;6.20;99.90;;;;;;4943291;28;37598;-81
2023/03/16 03:32:57;;;;;;;8.93;6.13;;;6.20;99.90;;;;;;4937481;28;36118;-79
2023/03/16 03:35:23;;;;;;;11.73;6.67;;;6.20;99.90;;;;;;4942760;28;38635;-79
2023/03/16 03:37:49;;;;;;;11.03;6.23;;;6.20;99.90;;;;;;4946245;28;38417;-79
2023/03/16 03:40:17;;;;;;;15.20;7.43;;;6.20;99.90;;;;;;4945989;28;38582;-78
2023/03/16 03:42:44;;;;;;;10.57;5.47;;;6.20;99.90;;;;;;4950579;28;35424;-79
2023/03/16 03:45:11;;;;;;;8.57;5.73;;;6.20;99.90;;;;;;4949665;28;38992;-80
2023/03/16 03:47:39;;;;;;;14.00;6.60;;;6.20;99.90;;;;;;4948689;28;37467;-79
2023/03/16 03:50:07;;;;;;;11.13;6.43;;;6.10;99.90;;;;;;4934349;28;38499;-77
2023/03/16 03:52:33;;;;;;;10.83;5.77;;;6.10;99.90;;;;;;4951291;28;37175;-78
2023/03/16 03:54:59;;;;;;;10.30;6.40;;;6.10;99.90;;;;;;4926948;28;38702;-79
2023/03/16 03:57:25;;;;;;;13.03;6.53;;;6.10;99.90;;;;;;4926333;28;38942;-78
2023/03/16 03:59:51;;;;;;;13.20;5.80;;;6.10;99.90;;;;;;4931780;28;38322;-79
2023/03/16 04:02:17;;;;;;;15.17;6.40;;;6.10;99.90;;;;;;4943727;28;37457;-78
2023/03/16 04:04:43;;;;;;;11.47;6.47;;;6.20;99.90;;;;;;4948993;28;38999;-78
2023/03/16 04:07:10;;;;;;;9.57;6.10;;;6.10;99.90;;;;;;4934844;28;37533;-78
2023/03/16 04:09:36;;;;;;;11.03;5.90;;;6.10;99.90;;;;;;4947885;28;37936;-78
2023/03/16 04:12:04;;;;;;;8.77;5.50;;;6.10;99.90;;;;;;4950374;28;35813;-78
2023/03/16 04:14:30;;;;;;;10.10;5.43;;;6.10;99.90;;;;;;4949434;28;38320;-78
2023/03/16 04:16:57;;;;;;;10.47;5.93;;;6.10;99.90;;;;;;4931944;28;37672;-78
2023/03/16 04:19:24;;;;;;;11.83;5.10;;;6.10;99.90;;;;;;4931052;28;38428;-76
2023/03/16 04:21:50;;;;;;;12.50;5.53;;;6.20;99.90;;;;;;4948047;28;35883;-78
2023/03/16 04:24:17;;;;;;;9.43;5.20;;;6.10;99.90;;;;;;4948891;28;38731;-79
2023/03/16 04:26:44;;;;;;;8.93;4.87;;;6.10;99.90;;;;;;4941293;28;38128;-78
2023/03/16 04:29:13;;;;;;;8.87;5.23;;;6.10;99.90;;;;;;4929693;28;38604;-77
2023/03/16 04:31:41;;;;;;;10.97;5.40;;;6.00;99.90;;;;;;4946612;28;37062;-76
2023/03/16 04:34:07;;;;;;;8.93;5.20;;;6.00;99.90;;;;;;4936771;28;38788;-76
2023/03/16 04:36:33;;;;;;;10.37;5.67;;;6.00;99.90;;;;;;4946270;28;38717;-77
2023/03/16 04:39:01;;;;;;;12.30;6.63;;;6.00;99.90;;;;;;4946527;28;37919;-77
2023/03/16 04:41:27;;;;;;;10.80;5.40;;;5.90;99.90;;;;;;4944255;28;47414;-77
2023/03/16 04:43:53;;;;;;;7.47;5.30;;;5.90;99.90;;;;;;4946390;28;39618;-78
2023/03/16 04:46:19;;;;;;;16.87;5.90;;;5.90;99.90;;;;;;4930953;28;38960;-77
2023/03/16 04:48:45;;;;;;;9.13;5.07;;;5.90;99.90;;;;;;4945563;28;38394;-77
2023/03/16 04:51:11;;;;;;;12.30;6.00;;;5.90;99.90;;;;;;4946003;28;36796;-77
2023/03/16 04:53:37;;;;;;;8.63;5.03;;;5.90;99.90;;;;;;4932860;28;37958;-79
2023/03/16 04:56:03;;;;;;;9.83;5.40;;;5.90;99.90;;;;;;4930190;28;37650;-74
2023/03/16 04:58:30;;;;;;;7.53;5.40;;;5.80;99.90;;;;;;4950512;28;36723;-77
2023/03/16 05:00:56;;;;;;;8.50;5.37;;;5.80;99.90;;;;;;4935052;28;36337;-77
2023/03/16 05:03:22;;;;;;;10.67;5.30;;;5.80;99.90;;;;;;4945041;28;39777;-77
2023/03/16 05:05:49;;;;;;;11.33;5.03;;;5.80;99.90;;;;;;4931015;29;36515;-77
2023/03/16 05:08:16;;;;;;;12.17;5.20;;;5.80;99.90;;;;;;4920048;28;38572;-77
2023/03/16 05:10:43;;;;;;;8.40;5.00;;;5.80;99.90;;;;;;4935627;28;36560;-77
2023/03/16 05:13:09;;;;;;;7.77;4.50;;;5.80;99.90;;;;;;4937728;28;37638;-77
2023/03/16 05:15:35;;;;;;;12.70;5.53;;;5.80;99.90;;;;;;4931582;28;38400;-77
2023/03/16 05:18:01;;;;;;;8.77;4.37;;;5.80;99.90;;;;;;4923006;29;37904;-77
2023/03/16 05:20:28;;;;;;;7.87;3.90;;;5.90;99.90;;;;;;4927313;28;37274;-77
2023/03/16 05:22:54;;;;;;;8.60;4.40;;;5.90;99.90;;;;;;4944067;28;38476;-77
2023/03/16 05:25:20;;;;;;;7.43;4.00;;;5.90;99.90;;;;;;4933747;28;38745;-77
2023/03/16 05:27:50;;;;;;;10.03;4.27;;;5.90;99.90;;;;;;4931631;28;38509;-77
2023/03/16 05:30:17;;;;;;;11.73;4.00;;;6.00;99.90;;;;;;4925688;29;38449;-76
2023/03/16 05:32:44;;;;;;;6.30;3.73;;;6.00;99.90;;;;;;4916435;29;37653;-77
2023/03/16 05:35:12;;;;;;;8.43;3.97;;;6.00;99.90;;;;;;4922357;28;38603;-76
2023/03/16 05:37:41;;;;;;;6.43;3.60;;;6.00;99.90;;;;;;4918551;29;37441;-76
2023/03/16 05:40:15;;;;;;;6.40;3.33;;;6.00;99.90;;;;;;4926007;28;35888;-77
2023/03/16 05:42:46;;;;;;;9.87;4.13;;;6.00;99.90;;;;;;4926544;28;37877;-76
2023/03/16 05:45:14;;;;;;;9.90;3.33;;;6.00;99.90;;;;;;4927969;28;37978;-76
2023/03/16 05:47:41;;;;;;;6.70;3.53;;;6.00;99.90;;;;;;4926174;28;38159;-77
2023/03/16 05:50:10;;;;;;;5.17;3.53;;;6.00;99.90;;;;;;4928337;28;37387;-76
2023/03/16 05:52:39;;;;;;;7.53;3.63;;;6.00;99.90;;;;;;4931802;28;38963;-76
2023/03/16 05:55:08;;;;;;;9.70;3.83;;;6.00;99.90;;;;;;4925927;28;38509;-76
2023/03/16 05:57:34;;;;;;;9.50;3.90;;;6.00;99.90;;;;;;4919659;29;36866;-76
2023/03/16 06:00:11;;;;;;;8.73;3.20;;;6.00;99.90;;;;;;4933774;28;36057;-75
2023/03/16 06:02:37;;;;;;;11.57;3.60;;;6.00;99.90;;;;;;4936919;28;39348;-77
2023/03/16 06:05:03;;;;;;;5.60;3.70;;;6.00;99.90;;;;;;4933598;28;39563;-75
2023/03/16 06:07:29;;;;;;;9.57;3.40;;;6.00;99.90;;;;;;4933642;28;37206;-75
2023/03/16 06:09:56;;;;;;;10.73;4.10;;;6.00;99.90;;;;;;4934697;28;38481;-76
2023/03/16 06:12:22;;;;;;;9.17;3.60;;;6.00;99.90;;;;;;4934238;28;37416;-77
2023/03/16 06:14:48;;;;;;;7.03;3.40;;;6.10;99.90;;;;;;4938568;28;37198;-76
2023/03/16 06:17:14;;;;;;;7.70;3.33;;;6.00;99.90;;;;;;4938248;28;36870;-78
2023/03/16 06:19:40;;;;;;;7.60;3.60;;;6.10;99.90;;;;;;4953736;28;37076;-75
2023/03/16 06:22:07;;;;;;;10.13;3.80;;;6.10;99.90;;;;;;4936856;28;39099;-76
2023/03/16 06:24:33;;;;;;;8.20;3.60;;;6.10;99.90;;;;;;4949845;28;38537;-77
2023/03/16 06:26:59;;;;;;;11.10;3.57;;;6.10;99.90;;;;;;4935459;28;36860;-73
2023/03/16 06:29:25;;;;;;;6.43;3.27;;;6.10;99.90;;;;;;4933835;28;35974;-74
2023/03/16 06:31:53;;;;;;;8.03;4.23;;;6.10;99.90;;;;;;4949754;28;37613;-77
2023/03/16 06:34:20;;;;;;;11.43;3.90;;;6.10;99.90;;;;;;4941300;28;40737;-78
2023/03/16 06:36:46;;;;;;;9.57;3.63;;;6.00;99.90;;;;;;4948140;28;38299;-77
2023/03/16 06:39:13;;;;;;;8.57;3.73;;;6.10;99.90;;;;;;4928086;28;36026;-78
2023/03/16 06:41:41;;;;;;;10.80;3.43;;;6.10;99.90;;;;;;4957274;28;40207;-76
2023/03/16 06:44:08;;;;;;;7.47;3.57;;;6.10;99.90;;;;;;4945351;28;39458;-76
2023/03/16 06:46:34;;;;;;;10.10;3.50;;;6.10;99.90;;;;;;4934383;28;36825;-78
2023/03/16 06:49:00;;;;;;;6.47;3.53;;;6.10;99.90;;;;;;4953771;28;37271;-77
2023/03/16 06:51:27;;;;;;;8.47;3.93;;;6.10;99.90;;;;;;4932513;28;47023;-77
2023/03/16 06:53:53;;;;;;;10.27;3.63;;;6.10;99.90;;;;;;4948046;28;37178;-77
2023/03/16 06:56:19;;;;;;;5.97;3.13;;;6.20;99.90;;;;;;4946665;28;38451;-77
2023/03/16 06:58:45;;;;;;;9.57;3.20;;;6.20;99.90;;;;;;4926781;28;36073;-77
2023/03/16 07:01:11;;;;;;;9.93;3.57;;;6.20;99.90;;;;;;4951580;28;40165;-77
2023/03/16 07:03:37;;;;;;;5.67;3.00;;;6.30;99.90;;;;;;4922442;28;38668;-76
2023/03/16 07:06:04;;;;;;;12.23;3.50;;;6.30;99.90;;;;;;4925538;29;38556;-78
2023/03/16 07:08:31;;;;;;;9.60;3.17;;;6.30;99.90;;;;;;4934264;28;34699;-78
2023/03/16 07:10:57;;;;;;;5.23;3.00;;;6.30;99.90;;;;;;4925518;28;38422;-77
2023/03/16 07:13:23;;;;;;;7.57;3.00;;;6.40;99.90;;;;;;4930345;28;39355;-78
2023/03/16 07:15:51;;;;;;;8.23;3.20;;;6.40;99.90;;;;;;4922136;28;37267;-77
2023/03/16 07:18:20;;;;;;;6.17;2.87;;;6.50;99.90;;;;;;4925895;28;37009;-78
2023/03/16 07:20:46;;;;;;;5.57;2.70;;;6.50;99.90;;;;;;4929687;28;38942;-77
2023/03/16 07:23:12;;;;;;;4.57;2.33;;;6.50;99.90;;;;;;4916509;28;39289;-77
2023/03/16 07:25:38;;;;;;;5.17;2.47;;;6.60;99.90;;;;;;4910852;28;38309;-77
2023/03/16 07:28:04;;;;;;;3.93;2.23;;;6.70;99.90;;;;;;4929553;28;37492;-76
2023/03/16 07:30:31;;;;;;;7.83;2.70;;;6.80;99.90;;;;;;4933639;28;40245;-78
2023/03/16 07:32:57;;;;;;;5.97;2.53;;;6.90;99.90;;;;;;4928965;28;37310;-77
2023/03/16 07:35:23;;;;;;;8.00;2.53;;;6.90;99.90;;;;;;4917208;28;36858;-77
2023/03/16 07:37:49;;;;;;;6.50;2.57;;;6.90;99.90;;;;;;4912753;29;37653;-77
2023/03/16 07:40:16;;;;;;;4.30;2.23;;;6.90;99.90;;;;;;4932165;28;39339;-78
2023/03/16 07:42:43;;;;;;;7.53;2.50;;;6.90;99.90;;;;;;4931549;28;39242;-77
2023/03/16 07:45:11;;;;;;;7.03;2.97;;;6.90;99.90;;;;;;4924919;28;37117;-77
2023/03/16 07:47:37;;;;;;;7.07;2.90;;;7.00;99.90;;;;;;4929742;29;38765;-75
2023/03/16 07:50:03;;;;;;;8.83;2.30;;;7.00;99.90;;;;;;4931338;29;37558;-75
2023/03/16 07:52:29;;;;;;;8.00;2.20;;;7.00;99.90;;;;;;4930714;28;37057;-74
2023/03/16 07:54:55;;;;;;;6.03;2.03;;;7.10;99.90;;;;;;4920314;28;38800;-73
2023/03/16 07:57:22;;;;;;;7.60;2.47;;;7.30;99.90;;;;;;4926309;28;35879;-74
2023/03/16 07:59:48;;;;;;;4.53;2.13;;;7.40;99.90;;;;;;4926870;28;38639;-73
2023/03/16 08:02:16;;;;;;;6.73;2.53;;;7.40;99.90;;;;;;4924320;28;39119;-74
2023/03/16 08:04:43;;;;;;;6.87;2.10;;;7.40;99.90;;;;;;4930789;28;38152;-74
2023/03/16 08:07:11;;;;;;;7.80;2.13;;;7.30;99.90;;;;;;4907555;29;35918;-74
2023/03/16 08:09:37;;;;;;;5.57;2.10;;;7.30;99.90;;;;;;5008771;23;38441;-73
2023/03/16 08:12:05;;;;;;;8.47;2.30;;;7.30;99.90;;;;;;4930889;28;37693;-75
2023/03/16 08:14:33;;;;;;;5.63;2.23;;;7.30;99.90;;;;;;4935570;28;36820;-76
2023/03/16 08:17:00;;;;;;;6.07;2.53;;;7.40;99.90;;;;;;4928375;28;35905;-74
2023/03/16 08:19:27;;;;;;;5.20;2.37;;;7.40;99.90;;;;;;4932538;28;39422;-75
2023/03/16 08:21:53;;;;;;;4.00;1.83;;;7.50;99.90;;;;;;4949866;28;37478;-75
2023/03/16 08:24:20;;;;;;;7.00;2.80;;;7.60;99.90;;;;;;4936889;28;36639;-76
2023/03/16 08:26:46;;;;;;;5.17;2.30;;;7.60;99.90;;;;;;4934366;28;37582;-76
2023/03/16 08:29:12;;;;;;;6.23;2.20;;;7.60;99.90;;;;;;4930924;28;38283;-76
2023/03/16 08:31:41;;;;;;;4.53;1.63;;;7.70;99.90;;;;;;4936006;28;38727;-74
2023/03/16 08:34:09;;;;;;;7.63;2.30;;;7.80;99.90;;;;;;4932104;28;38145;-75
2023/03/16 08:36:35;;;;;;;5.57;2.10;;;8.00;99.90;;;;;;4930032;28;37435;-75
2023/03/16 08:39:04;;;;;;;5.43;2.40;;;8.00;99.90;;;;;;4947003;28;38948;-74
2023/03/16 08:41:33;;;;;;;4.00;2.20;;;8.10;99.90;;;;;;4929286;29;37568;-74
2023/03/16 08:43:59;;;;;;;9.00;2.07;;;8.20;99.90;;;;;;4924927;28;37742;-74
2023/03/16 08:46:26;;;;;;;5.10;2.00;;;8.30;99.90;;;;;;4934174;29;36217;-76
2023/03/16 08:48:54;;;;;;;5.90;2.03;;;8.30;99.90;;;;;;4934380;28;37199;-75
2023/03/16 08:51:20;;;;;;;6.47;2.13;;;8.40;99.90;;;;;;4921844;28;37187;-75
2023/03/16 08:53:46;;;;;;;6.30;2.60;;;8.50;99.90;;;;;;4950089;28;37535;-75
2023/03/16 08:56:13;;;;;;;2.93;2.17;;;8.40;99.90;;;;;;4924507;28;36936;-75
2023/03/16 08:58:44;;;;;;;4.03;1.87;;;8.40;99.90;;;;;;4943064;28;37665;-78
2023/03/16 09:01:12;;;;;;;5.90;1.80;;;8.40;99.90;;;;;;4935744;28;38381;-77
2023/03/16 09:03:39;;;;;;;8.13;1.90;;;8.40;99.90;;;;;;4928638;28;39060;-73
2023/03/16 09:06:12;;;;;;;5.80;2.00;;;8.50;99.90;;;;;;4927026;28;37997;-73
2023/03/16 09:08:38;;;;;;;;;;;8.60;99.90;;;;;;4932677;28;37635;-79
2023/03/16 09:11:11;;;;;;;6.53;1.70;;;8.80;99.90;;;;;;4931461;29;37543;-75
2023/03/16 09:13:38;;;;;;;5.77;1.93;;;9.00;99.90;;;;;;4927272;29;37535;-76
2023/03/16 09:16:06;;;;;;;5.13;1.77;;;9.00;99.90;;;;;;4931397;28;36671;-77
2023/03/16 09:18:34;;;;;;;4.47;1.80;;;9.10;99.90;;;;;;4923855;28;37717;-75
2023/03/16 09:21:02;;;;;;;9.10;2.30;;;9.20;99.90;;;;;;4932832;28;39384;-74
2023/03/16 09:23:29;;;;;;;3.27;1.80;;;9.20;99.90;;;;;;4935419;28;47106;-74
2023/03/16 09:26:01;;;;;;;3.97;1.70;;;9.30;99.90;;;;;;4945453;28;37281;-74
2023/03/16 09:28:29;;;;;;;3.97;1.73;;;9.30;99.90;;;;;;4934078;28;47573;-74
2023/03/16 09:30:57;;;;;;;3.17;1.73;;;9.50;99.90;;;;;;4933490;28;37253;-74
2023/03/16 09:33:24;;;;;;;6.30;1.87;;;9.60;99.90;;;;;;4942256;28;38285;-74
2023/03/16 09:35:51;;;;;;;4.47;1.70;;;9.70;99.90;;;;;;4935080;28;37331;-74
2023/03/16 09:38:18;;;;;;;4.17;1.70;;;9.90;99.90;;;;;;4934915;28;38781;-73
2023/03/16 09:40:47;;;;;;;6.53;1.83;;;10.00;99.90;;;;;;4928420;28;39074;-73
2023/03/16 09:43:19;;;;;;;6.70;1.73;;;10.10;99.90;;;;;;4932880;28;38260;-73
2023/03/16 09:46:04;;;;;;;7.28;1.92;;;10.20;99.90;;;;;;4935301;28;37043;-74
2023/03/16 09:48:34;;;;;;;8.05;1.65;;;10.20;99.90;;;;;;4932044;28;49063;-74
2023/03/16 09:51:04;;;;;;;5.00;1.80;;;10.20;99.90;;;;;;4947369;28;37335;-74
2023/03/16 09:53:34;;;;;;;5.53;2.00;;;10.40;99.90;;;;;;4942879;28;47083;-74
2023/03/16 09:56:08;;;;;;;5.13;1.75;;;10.40;99.90;;;;;;4932546;29;36353;-75
2023/03/16 09:58:35;;;;;;;5.85;2.20;;;10.60;99.90;;;;;;4936729;28;50143;-76
2023/03/16 10:01:34;;;;;;;4.60;1.80;;;10.60;99.90;;;;;;4935767;28;38801;-75
2023/03/16 10:04:13;;;;;;;5.17;1.60;;;10.60;99.90;;;;;;4942846;28;37318;-75
2023/03/16 10:06:52;;;;;;;3.65;1.35;;;10.50;99.90;;;;;;4933630;28;48590;-75
2023/03/16 10:09:33;;;;;;;5.88;2.00;;;10.60;99.90;;;;;;4951533;28;37813;-74
2023/03/16 10:12:02;;;;;;;5.40;1.55;;;10.70;99.90;;;;;;4930128;28;39601;-75
2023/03/16 10:15:15;;;;;;;4.77;1.67;;;10.90;99.90;;;;;;4943189;28;47008;-75
2023/03/16 10:18:09;;;;;;;5.50;1.77;;;10.80;99.90;;;;;;4931621;28;46849;-75
2023/03/16 10:20:35;;;;;;;6.68;1.58;;;10.90;99.90;;;;;;4935541;29;47729;-76
2023/03/16 10:23:16;;;;;;;6.80;1.70;;;11.10;99.90;;;;;;4922488;28;39409;-76
2023/03/16 10:25:47;;;;;;;6.15;1.60;;;11.10;99.90;;;;;;4936082;29;47166;-76
2023/03/16 10:28:22;;;;;;;5.35;1.42;;;11.30;99.90;;;;;;4953513;28;36114;-76
2023/03/16 10:30:51;;;;;;;6.88;1.98;;;11.20;99.90;;;;;;4940925;28;39113;-76
2023/03/16 10:33:26;;;;;;;5.75;1.90;;;11.20;99.90;;;;;;4934388;28;38739;-77
2023/03/16 10:36:18;;;;;;;5.93;1.40;;;11.20;99.90;;;;;;4940132;28;38077;-76
2023/03/16 10:38:48;;;;;;;5.03;1.80;;;11.20;99.90;;;;;;4938392;28;47332;-76
2023/03/16 10:41:17;;;;;;;3.85;1.52;;;11.40;99.90;;;;;;4933620;28;38519;-75
2023/03/16 10:43:54;;;;;;;5.25;1.35;;;11.50;99.90;;;;;;4929565;28;37126;-76
2023/03/16 10:46:21;;;;;;;5.15;1.70;;;11.50;99.90;;;;;;4945333;28;37237;-76
2023/03/16 10:48:53;;;;;;;3.80;1.58;;;11.50;99.90;;;;;;4935904;28;37151;-76
2023/03/16 10:51:24;;;;;;;5.32;1.55;;;11.50;99.90;;;;;;4933424;28;37868;-77
2023/03/16 10:53:51;;;;;;;9.15;1.98;;;11.50;99.90;;;;;;4928232;28;39709;-76
2023/03/16 10:56:21;;;;;;;4.75;1.40;;;11.40;99.90;;;;;;4944918;28;37012;-77
2023/03/16 10:58:56;;;;;;;6.05;1.50;;;11.50;99.90;;;;;;4929110;28;38533;-77
2023/03/16 11:01:28;;;;;;;5.20;1.27;;;11.60;99.90;;;;;;4937897;28;39049;-78
2023/03/16 11:03:55;;;;;;;9.02;1.92;;;11.60;99.90;;;;;;4926373;29;37006;-78
2023/03/16 11:06:29;;;;;;;5.38;1.85;;;11.70;99.90;;;;;;4930860;28;36785;-76
2023/03/16 11:09:11;;;;;;;4.78;1.30;;;11.80;99.90;;;;;;4929116;28;37326;-79
2023/03/16 11:11:37;;;;;;;4.18;1.50;;;11.90;99.90;;;;;;4929449;28;46808;-77
2023/03/16 11:14:11;;;;;;;5.90;1.45;;;12.00;99.90;;;;;;4939840;28;39572;-78
2023/03/16 11:16:55;;;;;;;3.83;1.00;;;12.00;99.90;;;;;;4928473;28;37145;-78
2023/03/16 11:19:21;;;;;;;2.45;1.30;;;12.00;99.90;;;;;;4929856;28;36857;-77
2023/03/16 11:22:00;;;;;;;2.97;0.95;;;12.10;99.90;;;;;;4942436;28;38798;-77
2023/03/16 11:24:48;;;;;;;3.92;1.10;;;12.20;99.90;;;;;;4943927;28;37640;-76
2023/03/16 11:27:26;;;;;;;8.10;1.40;;;12.30;99.90;;;;;;4927317;28;36813;-75
2023/03/16 11:29:58;;;;;;;4.38;1.10;;;12.30;99.90;;;;;;4944410;28;37106;-77
2023/03/16 11:32:32;;;;;;;4.55;1.50;;;12.40;99.90;;;;;;4941127;28;39866;-76
2023/03/16 11:34:59;;;;;;;1.92;0.95;;;12.70;99.90;;;;;;4931641;28;38661;-78
2023/03/16 11:38:14;;;;;;;6.47;1.35;;;12.80;99.90;;;;;;4929790;28;37902;-77
2023/03/16 11:41:04;;;;;;;4.63;1.10;;;12.80;99.90;;;;;;4901760;28;48344;-76
2023/03/16 11:43:45;;;;;;;2.75;1.17;;;13.00;99.90;;;;;;4933783;28;47223;-78
2023/03/16 11:46:32;;;;;;;4.43;1.08;;;13.00;99.90;;;;;;4939656;28;38055;-77
2023/03/16 11:49:26;;;;;;;2.70;0.82;;;13.00;99.90;;;;;;4948671;28;38945;-77
2023/03/16 11:51:58;;;;;;;3.47;1.33;;;12.90;99.90;;;;;;4933616;28;48358;-77
2023/03/16 11:54:57;;;;;;;4.25;1.20;;;12.80;99.90;;;;;;4942777;28;38934;-78
2023/03/16 11:57:41;;;;;;;4.43;1.33;;;12.90;99.90;;;;;;4929340;28;37139;-78
2023/03/16 12:00:12;;;;;;;8.10;1.50;;;13.20;99.90;;;;;;4948879;28;36970;-75
2023/03/16 12:02:44;;;;;;;7.82;1.20;;;13.10;99.90;;;;;;4928892;28;37136;-78
2023/03/16 12:05:22;;;;;;;7.57;1.48;;;13.10;99.90;;;;;;4947656;28;37662;-76
2023/03/16 12:08:21;;;;;;;4.35;1.35;;;13.00;99.90;;;;;;4933859;28;37666;-79
2023/03/16 12:10:53;;;;;;;5.07;1.50;;;13.10;99.90;;;;;;4934536;28;47308;-76
2023/03/16 12:13:38;;;;;;;4.50;1.30;;;13.30;99.90;;;;;;4932524;28;36545;-76
2023/03/16 12:16:22;;;;;;;6.15;1.27;;;13.50;99.90;;;;;;4942652;28;38913;-78
2023/03/16 12:19:00;;;;;;;5.43;1.70;;;13.50;99.90;;;;;;4933858;28;38779;-76
2023/03/16 12:21:41;;;;;;;10.05;1.45;;;13.40;99.90;;;;;;4947511;28;38153;-77
2023/03/16 12:24:17;;;;;;;8.20;1.50;;;13.50;99.90;;;;;;4941635;28;36327;-76
2023/03/16 12:26:44;;;;;;;8.48;1.50;;;13.50;99.90;;;;;;4944915;28;37780;-77
2023/03/16 12:29:32;;;;;;;6.85;1.83;;;13.80;99.90;;;;;;4945509;28;39138;-76
2023/03/16 12:32:21;;;;;;;7.78;1.23;;;13.90;99.90;;;;;;4948322;28;38008;-77
2023/03/16 12:34:55;;;;;;;12.98;1.95;;;14.00;99.90;;;;;;4931337;28;47193;-77
2023/03/16 12:37:36;;;;;;;14.10;1.50;;;14.10;99.90;;;;;;4949485;28;38914;-78
2023/03/16 12:40:08;;;;;;;3.75;1.60;;;14.00;99.90;;;;;;4934705;28;37491;-75
2023/03/16 12:42:43;;;;;;;8.20;1.50;;;14.20;99.90;;;;;;4933850;28;47040;-75
2023/03/16 12:45:22;;;;;;;16.23;2.47;;;13.90;99.90;;;;;;4946981;28;36700;-77
2023/03/16 12:48:03;;;;;;;4.85;1.58;;;14.20;99.90;;;;;;4937517;28;38337;-77
2023/03/16 12:50:29;;;;;;;4.82;1.38;;;14.40;99.90;;;;;;4930914;28;48218;-78
2023/03/16 12:52:55;;;;;;;6.68;1.20;;;14.50;99.90;;;;;;4944379;28;38150;-77
2023/03/16 12:55:44;;;;;;;5.18;1.08;;;14.70;99.90;;;;;;4931350;28;37317;-76
2023/03/16 12:58:11;;;;;;;5.75;1.85;;;14.80;99.90;;;;;;4941568;28;38681;-76
2023/03/16 13:00:41;;;;;;;4.63;1.20;;;14.70;99.90;;;;;;4946077;28;38387;-76
2023/03/16 13:03:20;;;;;;;3.55;1.00;;;14.90;99.90;;;;;;4946943;28;38161;-78
2023/03/16 13:05:51;;;;;;;4.90;1.25;;;14.70;99.90;;;;;;4945881;28;36869;-78
2023/03/16 13:08:20;;;;;;;4.78;1.20;;;14.80;99.90;;;;;;4931158;28;37683;-76